Phillipsburg, Ohio
Current Conditions -  °F | °C
As of 4:56 PM on Wednesday 22 Oct 2014 (Local Time) from KDAY Reporting Station
Overcast Overcast  
Wind Chill: 51°   Ceiling: 2300
Heat Index: 51°   Visibility: 10mi
Dew Point: 41°   Wind: 8mph
Humidity: 68%   Direction: 360°N
Pressure: 30.29"   Gusts: NA
Location:  39.9°N, 84.4°W
Report Text: KDAY 222056Z 36007KT 10SM OVC023 11/05 A3029 RMK AO2 SLP260 T01060050 55004
Loading
Personal Weather Stations






























Interactive Weather Map
Tropical Storm Tracking
New forecast layout! Learn more

10-Day Weather Forecast

Advertisements
Track Severe Weather on mobile